sensor_id;sensor_type;location;lat;lon;timestamp;P1;durP1;ratioP1;P2;durP2;ratioP2
68319;SDS011;55168;51.120;17.024;2023-06-05T00:00:00;4.6;;;4.0;;
68319;SDS011;55168;51.120;17.024;2023-06-05T00:01:00;7.8;;;4.4;;
68319;SDS011;55168;51.120;17.024;2023-06-05T00:02:00;7.8;;;4.4;;
68319;SDS011;55168;51.120;17.024;2023-06-05T00:03:00;7.8;;;4.4;;
68319;SDS011;55168;51.120;17.024;2023-06-05T00:04:00;7.8;;;4.4;;
68319;SDS011;55168;51.120;17.024;2023-06-05T00:05:00;7.8;;;4.4;;
68319;SDS011;55168;51.120;17.024;2023-06-05T00:06:00;5.6;;;4.5;;
68319;SDS011;55168;51.120;17.024;2023-06-05T00:07:00;5.6;;;4.5;;
68319;SDS011;55168;51.120;17.024;2023-06-05T00:08:00;5.6;;;4.5;;
68319;SDS011;55168;51.120;17.024;2023-06-05T00:09:00;5.6;;;4.5;;
68319;SDS011;55168;51.120;17.024;2023-06-05T00:10:00;5.6;;;4.5;;
68319;SDS011;55168;51.120;17.024;2023-06-05T00:11:00;6.0;;;4.4;;
68319;SDS011;55168;51.120;17.024;2023-06-05T00:12:00;6.0;;;4.4;;
68319;SDS011;55168;51.120;17.024;2023-06-05T00:13:00;6.0;;;4.4;;
68319;SDS011;55168;51.120;17.024;2023-06-05T00:14:00;6.0;;;4.4;;
68319;SDS011;55168;51.120;17.024;2023-06-05T00:15:00;6.0;;;4.4;;
68319;SDS011;55168;51.120;17.024;2023-06-05T00:16:00;5.4;;;4.3;;
68319;SDS011;55168;51.120;17.024;2023-06-05T00:17:00;5.4;;;4.3;;
68319;SDS011;55168;51.120;17.024;2023-06-05T00:18:00;5.4;;;4.3;;
68319;SDS011;55168;51.120;17.024;2023-06-05T00:19:00;5.4;;;4.3;;
68319;SDS011;55168;51.120;17.024;2023-06-05T00:20:00;5.4;;;4.3;;
68319;SDS011;55168;51.120;17.024;2023-06-05T00:21:00;6.7;;;4.5;;
68319;SDS011;55168;51.120;17.024;2023-06-05T00:22:00;6.7;;;4.5;;
68319;SDS011;55168;51.120;17.024;2023-06-05T00:23:00;6.7;;;4.5;;
68319;SDS011;55168;51.120;17.024;2023-06-05T00:24:00;6.7;;;4.5;;
68319;SDS011;55168;51.120;17.024;2023-06-05T00:25:00;6.7;;;4.5;;
68319;SDS011;55168;51.120;17.024;2023-06-05T00:26:00;5.7;;;4.3;;
68319;SDS011;55168;51.120;17.024;2023-06-05T00:27:00;5.7;;;4.3;;
68319;SDS011;55168;51.120;17.024;2023-06-05T00:28:00;5.7;;;4.3;;
68319;SDS011;55168;51.120;17.024;2023-06-05T00:29:00;5.7;;;4.3;;
68319;SDS011;55168;51.120;17.024;2023-06-05T00:30:00;5.7;;;4.3;;
68319;SDS011;55168;51.120;17.024;2023-06-05T00:31:01;5.3;;;4.2;;
68319;SDS011;55168;51.120;17.024;2023-06-05T00:32:00;5.3;;;4.2;;
68319;SDS011;55168;51.120;17.024;2023-06-05T00:33:00;5.3;;;4.2;;
68319;SDS011;55168;51.120;17.024;2023-06-05T00:34:00;5.3;;;4.2;;
68319;SDS011;55168;51.120;17.024;2023-06-05T00:35:00;5.3;;;4.2;;
68319;SDS011;55168;51.120;17.024;2023-06-05T00:36:00;5.9;;;4.4;;
68319;SDS011;55168;51.120;17.024;2023-06-05T00:37:00;5.9;;;4.4;;
68319;SDS011;55168;51.120;17.024;2023-06-05T00:38:00;5.9;;;4.4;;
68319;SDS011;55168;51.120;17.024;2023-06-05T00:39:00;5.9;;;4.4;;
68319;SDS011;55168;51.120;17.024;2023-06-05T00:40:00;5.9;;;4.4;;
68319;SDS011;55168;51.120;17.024;2023-06-05T00:41:01;6.8;;;4.3;;
68319;SDS011;55168;51.120;17.024;2023-06-05T00:42:00;6.8;;;4.3;;
68319;SDS011;55168;51.120;17.024;2023-06-05T00:43:00;6.8;;;4.3;;
68319;SDS011;55168;51.120;17.024;2023-06-05T00:44:00;6.8;;;4.3;;
68319;SDS011;55168;51.120;17.024;2023-06-05T00:45:00;6.8;;;4.3;;
68319;SDS011;55168;51.120;17.024;2023-06-05T00:46:02;4.9;;;4.4;;
68319;SDS011;55168;51.120;17.024;2023-06-05T00:47:01;4.9;;;4.4;;
68319;SDS011;55168;51.120;17.024;2023-06-05T00:48:00;4.9;;;4.4;;
68319;SDS011;55168;51.120;17.024;2023-06-05T00:49:00;4.9;;;4.4;;
68319;SDS011;55168;51.120;17.024;2023-06-05T00:50:01;4.9;;;4.4;;
68319;SDS011;55168;51.120;17.024;2023-06-05T00:51:00;6.4;;;4.2;;
68319;SDS011;55168;51.120;17.024;2023-06-05T00:52:00;6.4;;;4.2;;
68319;SDS011;55168;51.120;17.024;2023-06-05T00:53:01;6.4;;;4.2;;
68319;SDS011;55168;51.120;17.024;2023-06-05T00:54:00;6.4;;;4.2;;
68319;SDS011;55168;51.120;17.024;2023-06-05T00:55:01;6.4;;;4.2;;
68319;SDS011;55168;51.120;17.024;2023-06-05T00:56:00;5.9;;;4.6;;
68319;SDS011;55168;51.120;17.024;2023-06-05T00:57:00;5.9;;;4.6;;
68319;SDS011;55168;51.120;17.024;2023-06-05T00:58:00;5.9;;;4.6;;
68319;SDS011;55168;51.120;17.024;2023-06-05T00:59:00;5.9;;;4.6;;
68319;SDS011;55168;51.120;17.024;2023-06-05T01:00:01;5.9;;;4.6;;
68319;SDS011;55168;51.120;17.024;2023-06-05T01:01:01;5.3;;;4.3;;
68319;SDS011;55168;51.120;17.024;2023-06-05T01:02:00;5.3;;;4.3;;
68319;SDS011;55168;51.120;17.024;2023-06-05T01:03:00;5.3;;;4.3;;
68319;SDS011;55168;51.120;17.024;2023-06-05T01:04:01;5.3;;;4.3;;
68319;SDS011;55168;51.120;17.024;2023-06-05T01:05:00;5.3;;;4.3;;
68319;SDS011;55168;51.120;17.024;2023-06-05T01:06:00;5.7;;;4.5;;
68319;SDS011;55168;51.120;17.024;2023-06-05T01:07:00;5.7;;;4.5;;
68319;SDS011;55168;51.120;17.024;2023-06-05T01:08:00;5.7;;;4.5;;
68319;SDS011;55168;51.120;17.024;2023-06-05T01:09:01;5.7;;;4.5;;
68319;SDS011;55168;51.120;17.024;2023-06-05T01:10:01;5.7;;;4.5;;
68319;SDS011;55168;51.120;17.024;2023-06-05T01:11:01;4.8;;;4.1;;
68319;SDS011;55168;51.120;17.024;2023-06-05T01:12:05;4.8;;;4.1;;
68319;SDS011;55168;51.120;17.024;2023-06-05T01:14:27;4.8;;;4.1;;
68319;SDS011;55168;51.120;17.024;2023-06-05T01:15:02;4.8;;;4.1;;
68319;SDS011;55168;51.120;17.024;2023-06-05T01:16:00;5.4;;;4.6;;
68319;SDS011;55168;51.120;17.024;2023-06-05T01:17:02;5.4;;;4.6;;
68319;SDS011;55168;51.120;17.024;2023-06-05T01:18:00;5.4;;;4.6;;
68319;SDS011;55168;51.120;17.024;2023-06-05T01:19:00;5.4;;;4.6;;
68319;SDS011;55168;51.120;17.024;2023-06-05T01:20:01;5.4;;;4.6;;
68319;SDS011;55168;51.120;17.024;2023-06-05T01:21:00;5.7;;;4.3;;
68319;SDS011;55168;51.120;17.024;2023-06-05T01:22:01;5.7;;;4.3;;
68319;SDS011;55168;51.120;17.024;2023-06-05T01:23:02;5.7;;;4.3;;
68319;SDS011;55168;51.120;17.024;2023-06-05T01:24:00;5.7;;;4.3;;
68319;SDS011;55168;51.120;17.024;2023-06-05T01:25:00;5.7;;;4.3;;
68319;SDS011;55168;51.120;17.024;2023-06-05T01:26:04;4.8;;;4.3;;
68319;SDS011;55168;51.120;17.024;2023-06-05T01:28:07;4.8;;;4.3;;
68319;SDS011;55168;51.120;17.024;2023-06-05T01:29:01;4.8;;;4.3;;
68319;SDS011;55168;51.120;17.024;2023-06-05T01:30:03;4.8;;;4.3;;
68319;SDS011;55168;51.120;17.024;2023-06-05T01:32:04;5.4;;;4.6;;
68319;SDS011;55168;51.120;17.024;2023-06-05T01:33:07;5.4;;;4.6;;
68319;SDS011;55168;51.120;17.024;2023-06-05T01:34:02;5.4;;;4.6;;
68319;SDS011;55168;51.120;17.024;2023-06-05T01:35:00;5.4;;;4.6;;
68319;SDS011;55168;51.120;17.024;2023-06-05T01:36:02;5.9;;;4.3;;
68319;SDS011;55168;51.120;17.024;2023-06-05T01:37:01;5.9;;;4.3;;
68319;SDS011;55168;51.120;17.024;2023-06-05T01:38:02;5.9;;;4.3;;
68319;SDS011;55168;51.120;17.024;2023-06-05T01:39:01;5.9;;;4.3;;
68319;SDS011;55168;51.120;17.024;2023-06-05T01:40:01;5.9;;;4.3;;
68319;SDS011;55168;51.120;17.024;2023-06-05T01:41:02;5.4;;;4.4;;
68319;SDS011;55168;51.120;17.024;2023-06-05T01:42:01;5.4;;;4.4;;
68319;SDS011;55168;51.120;17.024;2023-06-05T01:43:01;5.4;;;4.4;;
68319;SDS011;55168;51.120;17.024;2023-06-05T01:44:01;5.4;;;4.4;;
68319;SDS011;55168;51.120;17.024;2023-06-05T01:45:01;5.4;;;4.4;;
68319;SDS011;55168;51.120;17.024;2023-06-05T01:46:00;5.5;;;4.7;;
68319;SDS011;55168;51.120;17.024;2023-06-05T01:47:01;5.5;;;4.7;;
68319;SDS011;55168;51.120;17.024;2023-06-05T01:48:00;5.5;;;4.7;;
68319;SDS011;55168;51.120;17.024;2023-06-05T01:49:00;5.5;;;4.7;;
68319;SDS011;55168;51.120;17.024;2023-06-05T01:50:00;5.5;;;4.7;;
68319;SDS011;55168;51.120;17.024;2023-06-05T01:51:00;5.1;;;4.2;;
68319;SDS011;55168;51.120;17.024;2023-06-05T01:52:00;5.1;;;4.2;;
68319;SDS011;55168;51.120;17.024;2023-06-05T01:53:00;5.1;;;4.2;;
68319;SDS011;55168;51.120;17.024;2023-06-05T01:54:00;5.1;;;4.2;;
68319;SDS011;55168;51.120;17.024;2023-06-05T01:55:01;5.1;;;4.2;;
68319;SDS011;55168;51.120;17.024;2023-06-05T01:56:00;6.3;;;4.6;;
68319;SDS011;55168;51.120;17.024;2023-06-05T01:57:00;6.3;;;4.6;;
68319;SDS011;55168;51.120;17.024;2023-06-05T01:58:00;6.3;;;4.6;;
68319;SDS011;55168;51.120;17.024;2023-06-05T01:59:00;6.3;;;4.6;;
68319;SDS011;55168;51.120;17.024;2023-06-05T02:00:00;6.3;;;4.6;;
68319;SDS011;55168;51.120;17.024;2023-06-05T02:01:00;4.9;;;4.4;;
68319;SDS011;55168;51.120;17.024;2023-06-05T02:02:00;4.9;;;4.4;;
68319;SDS011;55168;51.120;17.024;2023-06-05T02:03:00;4.9;;;4.4;;
68319;SDS011;55168;51.120;17.024;2023-06-05T02:04:01;4.9;;;4.4;;
68319;SDS011;55168;51.120;17.024;2023-06-05T02:05:00;4.9;;;4.4;;
68319;SDS011;55168;51.120;17.024;2023-06-05T02:06:00;5.3;;;4.4;;
68319;SDS011;55168;51.120;17.024;2023-06-05T02:07:00;5.3;;;4.4;;
68319;SDS011;55168;51.120;17.024;2023-06-05T02:08:00;5.3;;;4.4;;
68319;SDS011;55168;51.120;17.024;2023-06-05T02:09:00;5.3;;;4.4;;
68319;SDS011;55168;51.120;17.024;2023-06-05T02:10:00;5.3;;;4.4;;
68319;SDS011;55168;51.120;17.024;2023-06-05T02:11:00;6.3;;;4.4;;
68319;SDS011;55168;51.120;17.024;2023-06-05T02:12:00;6.3;;;4.4;;
68319;SDS011;55168;51.120;17.024;2023-06-05T02:13:01;6.3;;;4.4;;
68319;SDS011;55168;51.120;17.024;2023-06-05T02:14:00;6.3;;;4.4;;
68319;SDS011;55168;51.120;17.024;2023-06-05T02:15:00;6.3;;;4.4;;
68319;SDS011;55168;51.120;17.024;2023-06-05T02:16:00;5.6;;;4.2;;
68319;SDS011;55168;51.120;17.024;2023-06-05T02:17:01;5.6;;;4.2;;
68319;SDS011;55168;51.120;17.024;2023-06-05T02:18:00;5.6;;;4.2;;
68319;SDS011;55168;51.120;17.024;2023-06-05T02:19:00;5.6;;;4.2;;
68319;SDS011;55168;51.120;17.024;2023-06-05T02:20:00;5.6;;;4.2;;
68319;SDS011;55168;51.120;17.024;2023-06-05T02:21:00;5.8;;;4.7;;
68319;SDS011;55168;51.120;17.024;2023-06-05T02:22:00;5.8;;;4.7;;
68319;SDS011;55168;51.120;17.024;2023-06-05T02:23:00;5.8;;;4.7;;
68319;SDS011;55168;51.120;17.024;2023-06-05T02:24:01;5.8;;;4.7;;
68319;SDS011;55168;51.120;17.024;2023-06-05T02:25:00;5.8;;;4.7;;
68319;SDS011;55168;51.120;17.024;2023-06-05T02:26:00;6.4;;;4.8;;
68319;SDS011;55168;51.120;17.024;2023-06-05T02:27:00;6.4;;;4.8;;
68319;SDS011;55168;51.120;17.024;2023-06-05T02:28:00;6.4;;;4.8;;
68319;SDS011;55168;51.120;17.024;2023-06-05T02:29:00;6.4;;;4.8;;
68319;SDS011;55168;51.120;17.024;2023-06-05T02:30:00;6.4;;;4.8;;
68319;SDS011;55168;51.120;17.024;2023-06-05T02:31:00;6.7;;;4.6;;
68319;SDS011;55168;51.120;17.024;2023-06-05T02:32:00;6.7;;;4.6;;
68319;SDS011;55168;51.120;17.024;2023-06-05T02:33:00;6.7;;;4.6;;
68319;SDS011;55168;51.120;17.024;2023-06-05T02:34:00;6.7;;;4.6;;
68319;SDS011;55168;51.120;17.024;2023-06-05T02:35:00;6.7;;;4.6;;
68319;SDS011;55168;51.120;17.024;2023-06-05T02:36:00;6.5;;;5.1;;
68319;SDS011;55168;51.120;17.024;2023-06-05T02:37:00;6.5;;;5.1;;
68319;SDS011;55168;51.120;17.024;2023-06-05T02:38:00;6.5;;;5.1;;
68319;SDS011;55168;51.120;17.024;2023-06-05T02:39:01;6.5;;;5.1;;
68319;SDS011;55168;51.120;17.024;2023-06-05T02:40:00;6.5;;;5.1;;
68319;SDS011;55168;51.120;17.024;2023-06-05T02:41:00;6.3;;;4.6;;
68319;SDS011;55168;51.120;17.024;2023-06-05T02:42:00;6.3;;;4.6;;
68319;SDS011;55168;51.120;17.024;2023-06-05T02:43:00;6.3;;;4.6;;
68319;SDS011;55168;51.120;17.024;2023-06-05T02:44:00;6.3;;;4.6;;
68319;SDS011;55168;51.120;17.024;2023-06-05T02:45:00;6.3;;;4.6;;
68319;SDS011;55168;51.120;17.024;2023-06-05T02:46:00;8.1;;;4.7;;
68319;SDS011;55168;51.120;17.024;2023-06-05T02:47:00;8.1;;;4.7;;
68319;SDS011;55168;51.120;17.024;2023-06-05T02:48:00;8.1;;;4.7;;
68319;SDS011;55168;51.120;17.024;2023-06-05T02:49:00;8.1;;;4.7;;
68319;SDS011;55168;51.120;17.024;2023-06-05T02:50:01;8.1;;;4.7;;
68319;SDS011;55168;51.120;17.024;2023-06-05T02:51:00;7.4;;;4.6;;
68319;SDS011;55168;51.120;17.024;2023-06-05T02:52:00;7.4;;;4.6;;
68319;SDS011;55168;51.120;17.024;2023-06-05T02:53:00;7.4;;;4.6;;
68319;SDS011;55168;51.120;17.024;2023-06-05T02:54:00;7.4;;;4.6;;
68319;SDS011;55168;51.120;17.024;2023-06-05T02:55:01;7.4;;;4.6;;
68319;SDS011;55168;51.120;17.024;2023-06-05T02:56:00;5.7;;;4.6;;
68319;SDS011;55168;51.120;17.024;2023-06-05T02:57:00;5.7;;;4.6;;
68319;SDS011;55168;51.120;17.024;2023-06-05T02:58:00;5.7;;;4.6;;
68319;SDS011;55168;51.120;17.024;2023-06-05T02:59:00;5.7;;;4.6;;
68319;SDS011;55168;51.120;17.024;2023-06-05T03:00:00;5.7;;;4.6;;
68319;SDS011;55168;51.120;17.024;2023-06-05T03:01:00;5.8;;;4.6;;
68319;SDS011;55168;51.120;17.024;2023-06-05T03:02:00;5.8;;;4.6;;
68319;SDS011;55168;51.120;17.024;2023-06-05T03:03:00;5.8;;;4.6;;
68319;SDS011;55168;51.120;17.024;2023-06-05T03:04:01;5.8;;;4.6;;
68319;SDS011;55168;51.120;17.024;2023-06-05T03:05:00;5.8;;;4.6;;
68319;SDS011;55168;51.120;17.024;2023-06-05T03:06:01;6.8;;;4.6;;
68319;SDS011;55168;51.120;17.024;2023-06-05T03:07:00;6.8;;;4.6;;
68319;SDS011;55168;51.120;17.024;2023-06-05T03:08:00;6.8;;;4.6;;
68319;SDS011;55168;51.120;17.024;2023-06-05T03:09:00;6.8;;;4.6;;
68319;SDS011;55168;51.120;17.024;2023-06-05T03:10:00;6.8;;;4.6;;
68319;SDS011;55168;51.120;17.024;2023-06-05T03:11:01;6.1;;;4.8;;
68319;SDS011;55168;51.120;17.024;2023-06-05T03:12:00;6.1;;;4.8;;
68319;SDS011;55168;51.120;17.024;2023-06-05T03:13:00;6.1;;;4.8;;
68319;SDS011;55168;51.120;17.024;2023-06-05T03:14:00;6.1;;;4.8;;
68319;SDS011;55168;51.120;17.024;2023-06-05T03:15:00;6.1;;;4.8;;
68319;SDS011;55168;51.120;17.024;2023-06-05T03:16:00;6.4;;;4.8;;
68319;SDS011;55168;51.120;17.024;2023-06-05T03:17:00;6.4;;;4.8;;
68319;SDS011;55168;51.120;17.024;2023-06-05T03:18:00;6.4;;;4.8;;
68319;SDS011;55168;51.120;17.024;2023-06-05T03:19:00;6.4;;;4.8;;
68319;SDS011;55168;51.120;17.024;2023-06-05T03:20:00;6.4;;;4.8;;
68319;SDS011;55168;51.120;17.024;2023-06-05T03:21:00;5.8;;;4.4;;
68319;SDS011;55168;51.120;17.024;2023-06-05T03:22:00;5.8;;;4.4;;
68319;SDS011;55168;51.120;17.024;2023-06-05T03:23:00;5.8;;;4.4;;
68319;SDS011;55168;51.120;17.024;2023-06-05T03:24:00;5.8;;;4.4;;
68319;SDS011;55168;51.120;17.024;2023-06-05T03:25:00;5.8;;;4.4;;
68319;SDS011;55168;51.120;17.024;2023-06-05T03:26:00;6.3;;;4.6;;
68319;SDS011;55168;51.120;17.024;2023-06-05T03:27:00;6.3;;;4.6;;
68319;SDS011;55168;51.120;17.024;2023-06-05T03:28:00;6.3;;;4.6;;
68319;SDS011;55168;51.120;17.024;2023-06-05T03:29:00;6.3;;;4.6;;
68319;SDS011;55168;51.120;17.024;2023-06-05T03:30:00;6.3;;;4.6;;
68319;SDS011;55168;51.120;17.024;2023-06-05T03:31:00;6.0;;;4.7;;
68319;SDS011;55168;51.120;17.024;2023-06-05T03:32:00;6.0;;;4.7;;
68319;SDS011;55168;51.120;17.024;2023-06-05T03:33:00;6.0;;;4.7;;
68319;SDS011;55168;51.120;17.024;2023-06-05T03:34:00;6.0;;;4.7;;
68319;SDS011;55168;51.120;17.024;2023-06-05T03:35:00;6.0;;;4.7;;
68319;SDS011;55168;51.120;17.024;2023-06-05T03:36:00;7.2;;;4.9;;
68319;SDS011;55168;51.120;17.024;2023-06-05T03:37:00;7.2;;;4.9;;
68319;SDS011;55168;51.120;17.024;2023-06-05T03:38:01;7.2;;;4.9;;
68319;SDS011;55168;51.120;17.024;2023-06-05T03:39:00;7.2;;;4.9;;
68319;SDS011;55168;51.120;17.024;2023-06-05T03:40:00;7.2;;;4.9;;
68319;SDS011;55168;51.120;17.024;2023-06-05T03:41:00;6.0;;;4.4;;
68319;SDS011;55168;51.120;17.024;2023-06-05T03:42:00;6.0;;;4.4;;
68319;SDS011;55168;51.120;17.024;2023-06-05T03:43:00;6.0;;;4.4;;
68319;SDS011;55168;51.120;17.024;2023-06-05T03:44:00;6.0;;;4.4;;
68319;SDS011;55168;51.120;17.024;2023-06-05T03:45:00;6.0;;;4.4;;
68319;SDS011;55168;51.120;17.024;2023-06-05T03:46:00;6.9;;;4.5;;
68319;SDS011;55168;51.120;17.024;2023-06-05T03:47:00;6.9;;;4.5;;
68319;SDS011;55168;51.120;17.024;2023-06-05T03:48:00;6.9;;;4.5;;
68319;SDS011;55168;51.120;17.024;2023-06-05T03:49:00;6.9;;;4.5;;
68319;SDS011;55168;51.120;17.024;2023-06-05T03:50:00;6.9;;;4.5;;
68319;SDS011;55168;51.120;17.024;2023-06-05T03:51:00;5.5;;;4.7;;
68319;SDS011;55168;51.120;17.024;2023-06-05T03:52:00;5.5;;;4.7;;
68319;SDS011;55168;51.120;17.024;2023-06-05T03:53:00;5.5;;;4.7;;
68319;SDS011;55168;51.120;17.024;2023-06-05T03:54:00;5.5;;;4.7;;
68319;SDS011;55168;51.120;17.024;2023-06-05T03:55:00;5.5;;;4.7;;
68319;SDS011;55168;51.120;17.024;2023-06-05T03:56:00;5.7;;;4.4;;
68319;SDS011;55168;51.120;17.024;2023-06-05T03:57:00;5.7;;;4.4;;
68319;SDS011;55168;51.120;17.024;2023-06-05T03:58:00;5.7;;;4.4;;
68319;SDS011;55168;51.120;17.024;2023-06-05T03:59:01;5.7;;;4.4;;
68319;SDS011;55168;51.120;17.024;2023-06-05T04:00:00;5.7;;;4.4;;
68319;SDS011;55168;51.120;17.024;2023-06-05T04:01:00;5.8;;;4.5;;
68319;SDS011;55168;51.120;17.024;2023-06-05T04:02:00;5.8;;;4.5;;
68319;SDS011;55168;51.120;17.024;2023-06-05T04:03:00;5.8;;;4.5;;
68319;SDS011;55168;51.120;17.024;2023-06-05T04:04:00;5.8;;;4.5;;
68319;SDS011;55168;51.120;17.024;2023-06-05T04:05:00;5.8;;;4.5;;
68319;SDS011;55168;51.120;17.024;2023-06-05T04:06:00;6.2;;;4.6;;
68319;SDS011;55168;51.120;17.024;2023-06-05T04:07:00;6.2;;;4.6;;
68319;SDS011;55168;51.120;17.024;2023-06-05T04:08:00;6.2;;;4.6;;
68319;SDS011;55168;51.120;17.024;2023-06-05T04:09:00;6.2;;;4.6;;
68319;SDS011;55168;51.120;17.024;2023-06-05T04:10:00;6.2;;;4.6;;
68319;SDS011;55168;51.120;17.024;2023-06-05T04:11:00;5.5;;;4.5;;
68319;SDS011;55168;51.120;17.024;2023-06-05T04:12:00;5.5;;;4.5;;
68319;SDS011;55168;51.120;17.024;2023-06-05T04:13:00;5.5;;;4.5;;
68319;SDS011;55168;51.120;17.024;2023-06-05T04:14:00;5.5;;;4.5;;
68319;SDS011;55168;51.120;17.024;2023-06-05T04:15:01;5.5;;;4.5;;
68319;SDS011;55168;51.120;17.024;2023-06-05T04:16:00;7.3;;;4.4;;
68319;SDS011;55168;51.120;17.024;2023-06-05T04:17:00;7.3;;;4.4;;
68319;SDS011;55168;51.120;17.024;2023-06-05T04:18:00;7.3;;;4.4;;
68319;SDS011;55168;51.120;17.024;2023-06-05T04:19:00;7.3;;;4.4;;
68319;SDS011;55168;51.120;17.024;2023-06-05T04:20:00;7.3;;;4.4;;
68319;SDS011;55168;51.120;17.024;2023-06-05T04:21:00;6.2;;;4.5;;
68319;SDS011;55168;51.120;17.024;2023-06-05T04:22:00;6.2;;;4.5;;
68319;SDS011;55168;51.120;17.024;2023-06-05T04:23:00;6.2;;;4.5;;
68319;SDS011;55168;51.120;17.024;2023-06-05T04:24:00;6.2;;;4.5;;
68319;SDS011;55168;51.120;17.024;2023-06-05T04:25:00;6.2;;;4.5;;
68319;SDS011;55168;51.120;17.024;2023-06-05T04:26:00;6.1;;;4.6;;
68319;SDS011;55168;51.120;17.024;2023-06-05T04:27:00;6.1;;;4.6;;
68319;SDS011;55168;51.120;17.024;2023-06-05T04:28:00;6.1;;;4.6;;
68319;SDS011;55168;51.120;17.024;2023-06-05T04:29:01;6.1;;;4.6;;
68319;SDS011;55168;51.120;17.024;2023-06-05T04:30:00;6.1;;;4.6;;
68319;SDS011;55168;51.120;17.024;2023-06-05T04:31:00;6.8;;;4.5;;
68319;SDS011;55168;51.120;17.024;2023-06-05T04:32:00;6.8;;;4.5;;
68319;SDS011;55168;51.120;17.024;2023-06-05T04:33:00;6.8;;;4.5;;
68319;SDS011;55168;51.120;17.024;2023-06-05T04:34:00;6.8;;;4.5;;
68319;SDS011;55168;51.120;17.024;2023-06-05T04:35:00;6.8;;;4.5;;
68319;SDS011;55168;51.120;17.024;2023-06-05T04:36:00;6.5;;;4.4;;
68319;SDS011;55168;51.120;17.024;2023-06-05T04:37:00;6.5;;;4.4;;
68319;SDS011;55168;51.120;17.024;2023-06-05T04:38:00;6.5;;;4.4;;
68319;SDS011;55168;51.120;17.024;2023-06-05T04:39:00;6.5;;;4.4;;
68319;SDS011;55168;51.120;17.024;2023-06-05T04:40:00;6.5;;;4.4;;
68319;SDS011;55168;51.120;17.024;2023-06-05T04:41:00;7.4;;;4.8;;
68319;SDS011;55168;51.120;17.024;2023-06-05T04:42:00;7.4;;;4.8;;
68319;SDS011;55168;51.120;17.024;2023-06-05T04:43:00;7.4;;;4.8;;
68319;SDS011;55168;51.120;17.024;2023-06-05T04:44:00;7.4;;;4.8;;
68319;SDS011;55168;51.120;17.024;2023-06-05T04:45:03;7.4;;;4.8;;
68319;SDS011;55168;51.120;17.024;2023-06-05T04:46:00;4.3;;;3.9;;
68319;SDS011;55168;51.120;17.024;2023-06-05T04:47:00;4.3;;;3.9;;
68319;SDS011;55168;51.120;17.024;2023-06-05T04:48:00;4.3;;;3.9;;
68319;SDS011;55168;51.120;17.024;2023-06-05T04:49:00;4.3;;;3.9;;
68319;SDS011;55168;51.120;17.024;2023-06-05T04:50:01;4.3;;;3.9;;
68319;SDS011;55168;51.120;17.024;2023-06-05T04:51:00;6.4;;;4.2;;
68319;SDS011;55168;51.120;17.024;2023-06-05T04:52:00;6.4;;;4.2;;
68319;SDS011;55168;51.120;17.024;2023-06-05T04:53:00;6.4;;;4.2;;
68319;SDS011;55168;51.120;17.024;2023-06-05T04:54:00;6.4;;;4.2;;
68319;SDS011;55168;51.120;17.024;2023-06-05T04:55:01;6.4;;;4.2;;
68319;SDS011;55168;51.120;17.024;2023-06-05T04:56:00;8.7;;;4.7;;
68319;SDS011;55168;51.120;17.024;2023-06-05T04:57:00;8.7;;;4.7;;
68319;SDS011;55168;51.120;17.024;2023-06-05T04:58:00;8.7;;;4.7;;
68319;SDS011;55168;51.120;17.024;2023-06-05T04:59:01;8.7;;;4.7;;
68319;SDS011;55168;51.120;17.024;2023-06-05T05:00:00;8.7;;;4.7;;
68319;SDS011;55168;51.120;17.024;2023-06-05T05:01:00;5.8;;;4.4;;
68319;SDS011;55168;51.120;17.024;2023-06-05T05:02:00;5.8;;;4.4;;
68319;SDS011;55168;51.120;17.024;2023-06-05T05:03:00;5.8;;;4.4;;
68319;SDS011;55168;51.120;17.024;2023-06-05T05:04:00;5.8;;;4.4;;
68319;SDS011;55168;51.120;17.024;2023-06-05T05:05:00;5.8;;;4.4;;
68319;SDS011;55168;51.120;17.024;2023-06-05T05:06:00;5.5;;;4.3;;
68319;SDS011;55168;51.120;17.024;2023-06-05T05:07:00;5.5;;;4.3;;
68319;SDS011;55168;51.120;17.024;2023-06-05T05:08:00;5.5;;;4.3;;
68319;SDS011;55168;51.120;17.024;2023-06-05T05:09:00;5.5;;;4.3;;
68319;SDS011;55168;51.120;17.024;2023-06-05T05:10:01;5.5;;;4.3;;
68319;SDS011;55168;51.120;17.024;2023-06-05T05:11:00;6.7;;;4.5;;
68319;SDS011;55168;51.120;17.024;2023-06-05T05:12:00;6.7;;;4.5;;
68319;SDS011;55168;51.120;17.024;2023-06-05T05:13:00;6.7;;;4.5;;
68319;SDS011;55168;51.120;17.024;2023-06-05T05:14:00;6.7;;;4.5;;
68319;SDS011;55168;51.120;17.024;2023-06-05T05:15:01;6.7;;;4.5;;
68319;SDS011;55168;51.120;17.024;2023-06-05T05:16:00;6.2;;;4.5;;
68319;SDS011;55168;51.120;17.024;2023-06-05T05:17:00;6.2;;;4.5;;
68319;SDS011;55168;51.120;17.024;2023-06-05T05:18:00;6.2;;;4.5;;
68319;SDS011;55168;51.120;17.024;2023-06-05T05:19:00;6.2;;;4.5;;
68319;SDS011;55168;51.120;17.024;2023-06-05T05:20:00;6.2;;;4.5;;
68319;SDS011;55168;51.120;17.024;2023-06-05T05:21:00;6.1;;;4.1;;
68319;SDS011;55168;51.120;17.024;2023-06-05T05:22:00;6.1;;;4.1;;
68319;SDS011;55168;51.120;17.024;2023-06-05T05:23:00;6.1;;;4.1;;
68319;SDS011;55168;51.120;17.024;2023-06-05T05:24:00;6.1;;;4.1;;
68319;SDS011;55168;51.120;17.024;2023-06-05T05:25:00;6.1;;;4.1;;
68319;SDS011;55168;51.120;17.024;2023-06-05T05:26:00;7.1;;;4.7;;
68319;SDS011;55168;51.120;17.024;2023-06-05T05:27:00;7.1;;;4.7;;
68319;SDS011;55168;51.120;17.024;2023-06-05T05:28:00;7.1;;;4.7;;
68319;SDS011;55168;51.120;17.024;2023-06-05T05:29:00;7.1;;;4.7;;
68319;SDS011;55168;51.120;17.024;2023-06-05T05:30:00;7.1;;;4.7;;
68319;SDS011;55168;51.120;17.024;2023-06-05T05:31:00;6.8;;;4.4;;
68319;SDS011;55168;51.120;17.024;2023-06-05T05:32:00;6.8;;;4.4;;
68319;SDS011;55168;51.120;17.024;2023-06-05T05:33:00;6.8;;;4.4;;
68319;SDS011;55168;51.120;17.024;2023-06-05T05:34:00;6.8;;;4.4;;
68319;SDS011;55168;51.120;17.024;2023-06-05T05:35:00;6.8;;;4.4;;
68319;SDS011;55168;51.120;17.024;2023-06-05T05:36:00;7.3;;;4.8;;
68319;SDS011;55168;51.120;17.024;2023-06-05T05:37:00;7.3;;;4.8;;
68319;SDS011;55168;51.120;17.024;2023-06-05T05:38:00;7.3;;;4.8;;
68319;SDS011;55168;51.120;17.024;2023-06-05T05:39:00;7.3;;;4.8;;
68319;SDS011;55168;51.120;17.024;2023-06-05T05:40:00;7.3;;;4.8;;
68319;SDS011;55168;51.120;17.024;2023-06-05T05:41:00;6.4;;;4.2;;
68319;SDS011;55168;51.120;17.024;2023-06-05T05:42:00;6.4;;;4.2;;
68319;SDS011;55168;51.120;17.024;2023-06-05T05:43:00;6.4;;;4.2;;
68319;SDS011;55168;51.120;17.024;2023-06-05T05:44:00;6.4;;;4.2;;
68319;SDS011;55168;51.120;17.024;2023-06-05T05:45:00;6.4;;;4.2;;
68319;SDS011;55168;51.120;17.024;2023-06-05T05:46:00;7.4;;;4.8;;
68319;SDS011;55168;51.120;17.024;2023-06-05T05:47:00;7.4;;;4.8;;
68319;SDS011;55168;51.120;17.024;2023-06-05T05:48:00;7.4;;;4.8;;
68319;SDS011;55168;51.120;17.024;2023-06-05T05:49:00;7.4;;;4.8;;
68319;SDS011;55168;51.120;17.024;2023-06-05T05:50:00;7.4;;;4.8;;
68319;SDS011;55168;51.120;17.024;2023-06-05T05:51:00;8.5;;;4.6;;
68319;SDS011;55168;51.120;17.024;2023-06-05T05:52:00;8.5;;;4.6;;
68319;SDS011;55168;51.120;17.024;2023-06-05T05:53:00;8.5;;;4.6;;
68319;SDS011;55168;51.120;17.024;2023-06-05T05:54:00;8.5;;;4.6;;
68319;SDS011;55168;51.120;17.024;2023-06-05T05:55:00;8.5;;;4.6;;
68319;SDS011;55168;51.120;17.024;2023-06-05T05:56:00;6.6;;;4.5;;
68319;SDS011;55168;51.120;17.024;2023-06-05T05:57:00;6.6;;;4.5;;
68319;SDS011;55168;51.120;17.024;2023-06-05T05:58:00;6.6;;;4.5;;
68319;SDS011;55168;51.120;17.024;2023-06-05T05:59:00;6.6;;;4.5;;
68319;SDS011;55168;51.120;17.024;2023-06-05T06:00:00;6.6;;;4.5;;
68319;SDS011;55168;51.120;17.024;2023-06-05T06:01:00;8.9;;;4.8;;
68319;SDS011;55168;51.120;17.024;2023-06-05T06:02:00;8.9;;;4.8;;
68319;SDS011;55168;51.120;17.024;2023-06-05T06:03:00;8.9;;;4.8;;
68319;SDS011;55168;51.120;17.024;2023-06-05T06:04:00;8.9;;;4.8;;
68319;SDS011;55168;51.120;17.024;2023-06-05T06:05:00;8.9;;;4.8;;
68319;SDS011;55168;51.120;17.024;2023-06-05T06:06:00;8.1;;;4.8;;
68319;SDS011;55168;51.120;17.024;2023-06-05T06:07:00;8.1;;;4.8;;
68319;SDS011;55168;51.120;17.024;2023-06-05T06:08:00;8.1;;;4.8;;
68319;SDS011;55168;51.120;17.024;2023-06-05T06:09:00;8.1;;;4.8;;